X  Schlie├čen METAR Luftfahrt Wetterdaten     EHGG Eelde Airport
Temperatur
5°C Temperatur
4°C Taupunkt
93% Feuchtigkeit



Wind
29 KM/S
18 MPS
8 M/S
16 KTS



230°
SW
Aktuelle Wetterlage

Nebel Nebel
Luftdruck 1021.92 (hPa) - 30.18 (inHg)
Sichtweite 2.2 (Meile) - 3.5 (Km)
Flughafen
Flughafen Code EHGG

Position : Eelde Airport
Entfernung: 40 (Km)

Metar:
EHGG 291225Z AUTO 23016KT 3500 BR SCT006 BKN007 OVC009 05/04 Q1022 TEMPO 2500 DZ BKN004

Zeit: 29-01-2023 13:25 CET